sensor_id;sensor_type;location;lat;lon;timestamp;temperature;humidity
64620;DHT22;51029;51.058;13.826;2022-10-24T00:01:41;13.70;99.90
64620;DHT22;51029;51.058;13.826;2022-10-24T00:04:07;13.70;99.90
64620;DHT22;51029;51.058;13.826;2022-10-24T00:06:33;13.60;99.90
64620;DHT22;51029;51.058;13.826;2022-10-24T00:08:58;13.60;99.90
64620;DHT22;51029;51.058;13.826;2022-10-24T00:11:26;13.60;99.90
64620;DHT22;51029;51.058;13.826;2022-10-24T00:13:54;13.60;99.90
64620;DHT22;51029;51.058;13.826;2022-10-24T00:16:20;13.50;99.90
64620;DHT22;51029;51.058;13.826;2022-10-24T00:18:46;13.40;99.90
64620;DHT22;51029;51.058;13.826;2022-10-24T00:21:12;13.50;99.90
64620;DHT22;51029;51.058;13.826;2022-10-24T00:23:38;13.50;99.90
64620;DHT22;51029;51.058;13.826;2022-10-24T00:26:04;13.50;99.90
64620;DHT22;51029;51.058;13.826;2022-10-24T00:28:32;13.50;99.90
64620;DHT22;51029;51.058;13.826;2022-10-24T00:30:58;13.50;99.90
64620;DHT22;51029;51.058;13.826;2022-10-24T00:33:24;13.40;99.90
64620;DHT22;51029;51.058;13.826;2022-10-24T00:35:50;13.40;99.90
64620;DHT22;51029;51.058;13.826;2022-10-24T00:38:16;13.30;99.90
64620;DHT22;51029;51.058;13.826;2022-10-24T00:40:42;13.40;99.90
64620;DHT22;51029;51.058;13.826;2022-10-24T00:43:20;13.50;99.90
64620;DHT22;51029;51.058;13.826;2022-10-24T00:45:48;13.50;99.90
64620;DHT22;51029;51.058;13.826;2022-10-24T00:50:40;13.60;99.90
64620;DHT22;51029;51.058;13.826;2022-10-24T00:53:07;13.60;99.90
64620;DHT22;51029;51.058;13.826;2022-10-24T00:55:33;13.70;99.90
64620;DHT22;51029;51.058;13.826;2022-10-24T00:57:59;13.70;99.90
64620;DHT22;51029;51.058;13.826;2022-10-24T01:00:31;13.70;99.90
64620;DHT22;51029;51.058;13.826;2022-10-24T01:02:57;13.70;99.90
64620;DHT22;51029;51.058;13.826;2022-10-24T01:05:26;13.70;99.90
64620;DHT22;51029;51.058;13.826;2022-10-24T01:07:59;13.70;99.90
64620;DHT22;51029;51.058;13.826;2022-10-24T01:13:56;13.80;99.90
64620;DHT22;51029;51.058;13.826;2022-10-24T01:16:29;13.80;99.90
64620;DHT22;51029;51.058;13.826;2022-10-24T01:22:17;13.90;99.90
64620;DHT22;51029;51.058;13.826;2022-10-24T01:30:13;14.00;99.90
64620;DHT22;51029;51.058;13.826;2022-10-24T01:32:41;14.00;99.90
64620;DHT22;51029;51.058;13.826;2022-10-24T01:38:06;13.90;99.90
64620;DHT22;51029;51.058;13.826;2022-10-24T01:40:45;13.90;99.90
64620;DHT22;51029;51.058;13.826;2022-10-24T01:43:14;13.90;99.90
64620;DHT22;51029;51.058;13.826;2022-10-24T01:45:45;13.90;99.90
64620;DHT22;51029;51.058;13.826;2022-10-24T01:48:14;13.90;99.90
64620;DHT22;51029;51.058;13.826;2022-10-24T01:50:43;13.80;99.90
64620;DHT22;51029;51.058;13.826;2022-10-24T01:53:11;13.90;99.90
64620;DHT22;51029;51.058;13.826;2022-10-24T01:55:38;13.90;99.90
64620;DHT22;51029;51.058;13.826;2022-10-24T01:58:06;13.80;99.90
64620;DHT22;51029;51.058;13.826;2022-10-24T02:00:32;13.80;99.90
64620;DHT22;51029;51.058;13.826;2022-10-24T02:03:01;13.80;99.90
64620;DHT22;51029;51.058;13.826;2022-10-24T02:06:07;13.80;99.90
64620;DHT22;51029;51.058;13.826;2022-10-24T02:08:33;13.80;99.90
64620;DHT22;51029;51.058;13.826;2022-10-24T02:11:02;13.70;99.90
64620;DHT22;51029;51.058;13.826;2022-10-24T02:13:34;13.70;99.90
64620;DHT22;51029;51.058;13.826;2022-10-24T02:16:02;13.70;99.90
64620;DHT22;51029;51.058;13.826;2022-10-24T02:18:29;13.70;99.90
64620;DHT22;51029;51.058;13.826;2022-10-24T02:27:04;13.60;99.90
64620;DHT22;51029;51.058;13.826;2022-10-24T02:29:42;13.60;99.90
64620;DHT22;51029;51.058;13.826;2022-10-24T02:32:16;13.60;99.90
64620;DHT22;51029;51.058;13.826;2022-10-24T02:34:43;13.50;99.90
64620;DHT22;51029;51.058;13.826;2022-10-24T02:37:10;13.40;99.90
64620;DHT22;51029;51.058;13.826;2022-10-24T02:39:39;13.30;99.90
64620;DHT22;51029;51.058;13.826;2022-10-24T02:42:05;13.20;99.90
64620;DHT22;51029;51.058;13.826;2022-10-24T02:44:34;13.20;99.90
64620;DHT22;51029;51.058;13.826;2022-10-24T02:47:02;13.10;99.90
64620;DHT22;51029;51.058;13.826;2022-10-24T02:49:28;13.10;99.90
64620;DHT22;51029;51.058;13.826;2022-10-24T02:51:54;13.10;99.90
64620;DHT22;51029;51.058;13.826;2022-10-24T02:54:20;13.10;99.90
64620;DHT22;51029;51.058;13.826;2022-10-24T02:56:53;13.10;99.90
64620;DHT22;51029;51.058;13.826;2022-10-24T02:59:20;13.00;99.90
64620;DHT22;51029;51.058;13.826;2022-10-24T03:01:45;13.00;99.90
64620;DHT22;51029;51.058;13.826;2022-10-24T03:04:11;13.00;99.90
64620;DHT22;51029;51.058;13.826;2022-10-24T03:06:36;12.90;99.90
64620;DHT22;51029;51.058;13.826;2022-10-24T03:09:02;12.90;99.90
64620;DHT22;51029;51.058;13.826;2022-10-24T03:11:28;12.90;99.90
64620;DHT22;51029;51.058;13.826;2022-10-24T03:13:53;13.00;99.90
64620;DHT22;51029;51.058;13.826;2022-10-24T03:16:19;13.00;99.90
64620;DHT22;51029;51.058;13.826;2022-10-24T03:18:44;13.10;99.90
64620;DHT22;51029;51.058;13.826;2022-10-24T03:21:10;13.20;99.90
64620;DHT22;51029;51.058;13.826;2022-10-24T03:23:36;13.30;99.90
64620;DHT22;51029;51.058;13.826;2022-10-24T03:26:01;13.20;99.90
64620;DHT22;51029;51.058;13.826;2022-10-24T03:28:27;13.10;99.90
64620;DHT22;51029;51.058;13.826;2022-10-24T03:30:52;13.00;99.90
64620;DHT22;51029;51.058;13.826;2022-10-24T03:33:19;13.00;99.90
64620;DHT22;51029;51.058;13.826;2022-10-24T03:35:44;13.00;99.90
64620;DHT22;51029;51.058;13.826;2022-10-24T03:38:10;12.90;99.90
64620;DHT22;51029;51.058;13.826;2022-10-24T03:40:36;12.80;99.90
64620;DHT22;51029;51.058;13.826;2022-10-24T03:43:01;12.90;99.90
64620;DHT22;51029;51.058;13.826;2022-10-24T03:45:27;12.80;99.90
64620;DHT22;51029;51.058;13.826;2022-10-24T03:47:53;12.80;99.90
64620;DHT22;51029;51.058;13.826;2022-10-24T03:50:18;12.80;99.90
64620;DHT22;51029;51.058;13.826;2022-10-24T03:52:44;12.80;99.90
64620;DHT22;51029;51.058;13.826;2022-10-24T03:55:10;12.70;99.90
64620;DHT22;51029;51.058;13.826;2022-10-24T03:57:36;12.60;99.90
64620;DHT22;51029;51.058;13.826;2022-10-24T04:00:04;12.60;99.90
64620;DHT22;51029;51.058;13.826;2022-10-24T04:02:29;12.60;99.90
64620;DHT22;51029;51.058;13.826;2022-10-24T04:04:55;12.50;99.90
64620;DHT22;51029;51.058;13.826;2022-10-24T04:07:21;12.50;99.90
64620;DHT22;51029;51.058;13.826;2022-10-24T04:09:46;12.40;99.90
64620;DHT22;51029;51.058;13.826;2022-10-24T04:12:12;12.40;99.90
64620;DHT22;51029;51.058;13.826;2022-10-24T04:14:38;12.40;99.90
64620;DHT22;51029;51.058;13.826;2022-10-24T04:17:03;12.40;99.90
64620;DHT22;51029;51.058;13.826;2022-10-24T04:19:29;12.40;99.90
64620;DHT22;51029;51.058;13.826;2022-10-24T04:21:54;12.40;99.90
64620;DHT22;51029;51.058;13.826;2022-10-24T04:24:20;12.40;99.90
64620;DHT22;51029;51.058;13.826;2022-10-24T04:26:46;12.30;99.90
64620;DHT22;51029;51.058;13.826;2022-10-24T04:29:11;12.30;99.90
64620;DHT22;51029;51.058;13.826;2022-10-24T04:31:37;12.30;99.90
64620;DHT22;51029;51.058;13.826;2022-10-24T04:34:03;12.20;99.90
64620;DHT22;51029;51.058;13.826;2022-10-24T04:36:30;12.20;99.90
64620;DHT22;51029;51.058;13.826;2022-10-24T04:38:55;12.20;99.90
64620;DHT22;51029;51.058;13.826;2022-10-24T04:41:21;12.20;99.90
64620;DHT22;51029;51.058;13.826;2022-10-24T04:43:46;12.20;99.90
64620;DHT22;51029;51.058;13.826;2022-10-24T04:46:12;12.10;99.90
64620;DHT22;51029;51.058;13.826;2022-10-24T04:48:38;12.10;99.90
64620;DHT22;51029;51.058;13.826;2022-10-24T04:51:03;12.10;99.90
64620;DHT22;51029;51.058;13.826;2022-10-24T04:53:29;12.00;99.90
64620;DHT22;51029;51.058;13.826;2022-10-24T04:55:55;12.00;99.90
64620;DHT22;51029;51.058;13.826;2022-10-24T04:58:20;12.00;99.90
64620;DHT22;51029;51.058;13.826;2022-10-24T05:00:46;12.00;99.90
64620;DHT22;51029;51.058;13.826;2022-10-24T05:03:14;12.10;99.90
64620;DHT22;51029;51.058;13.826;2022-10-24T05:05:40;12.10;99.90
64620;DHT22;51029;51.058;13.826;2022-10-24T05:08:05;12.00;99.90
64620;DHT22;51029;51.058;13.826;2022-10-24T05:10:31;12.00;99.90
64620;DHT22;51029;51.058;13.826;2022-10-24T05:12:56;12.00;99.90
64620;DHT22;51029;51.058;13.826;2022-10-24T05:15:22;12.00;99.90
64620;DHT22;51029;51.058;13.826;2022-10-24T05:17:47;12.00;99.90
64620;DHT22;51029;51.058;13.826;2022-10-24T05:20:14;12.00;99.90
64620;DHT22;51029;51.058;13.826;2022-10-24T05:22:40;12.00;99.90
64620;DHT22;51029;51.058;13.826;2022-10-24T05:25:06;12.00;99.90
64620;DHT22;51029;51.058;13.826;2022-10-24T05:27:31;12.00;99.90
64620;DHT22;51029;51.058;13.826;2022-10-24T05:29:57;12.10;99.90
64620;DHT22;51029;51.058;13.826;2022-10-24T05:32:23;12.00;99.90
64620;DHT22;51029;51.058;13.826;2022-10-24T05:34:49;12.10;99.90
64620;DHT22;51029;51.058;13.826;2022-10-24T05:37:15;12.10;99.90
64620;DHT22;51029;51.058;13.826;2022-10-24T05:39:41;12.10;99.90
64620;DHT22;51029;51.058;13.826;2022-10-24T05:42:07;12.10;99.90
64620;DHT22;51029;51.058;13.826;2022-10-24T05:44:33;12.10;99.90
64620;DHT22;51029;51.058;13.826;2022-10-24T05:46:59;12.20;99.90
64620;DHT22;51029;51.058;13.826;2022-10-24T05:49:24;12.10;99.90
64620;DHT22;51029;51.058;13.826;2022-10-24T05:51:50;12.10;99.90
64620;DHT22;51029;51.058;13.826;2022-10-24T05:54:15;12.10;99.90
64620;DHT22;51029;51.058;13.826;2022-10-24T05:56:41;12.10;99.90
64620;DHT22;51029;51.058;13.826;2022-10-24T05:59:07;12.00;99.90
64620;DHT22;51029;51.058;13.826;2022-10-24T06:01:33;12.00;99.90
64620;DHT22;51029;51.058;13.826;2022-10-24T06:03:59;12.00;99.90
64620;DHT22;51029;51.058;13.826;2022-10-24T06:06:24;12.00;99.90
64620;DHT22;51029;51.058;13.826;2022-10-24T06:08:51;12.00;99.90
64620;DHT22;51029;51.058;13.826;2022-10-24T06:11:16;12.00;99.90
64620;DHT22;51029;51.058;13.826;2022-10-24T06:13:42;12.10;99.90
64620;DHT22;51029;51.058;13.826;2022-10-24T06:16:09;12.20;99.90
64620;DHT22;51029;51.058;13.826;2022-10-24T06:18:36;12.30;99.90
64620;DHT22;51029;51.058;13.826;2022-10-24T06:21:04;12.40;99.90
64620;DHT22;51029;51.058;13.826;2022-10-24T06:23:30;12.50;99.90
64620;DHT22;51029;51.058;13.826;2022-10-24T06:25:56;12.60;99.90
64620;DHT22;51029;51.058;13.826;2022-10-24T06:28:22;12.70;99.90
64620;DHT22;51029;51.058;13.826;2022-10-24T06:30:49;12.80;99.90
64620;DHT22;51029;51.058;13.826;2022-10-24T06:33:15;12.90;99.90
64620;DHT22;51029;51.058;13.826;2022-10-24T06:35:40;13.00;99.90
64620;DHT22;51029;51.058;13.826;2022-10-24T06:38:06;13.10;99.90
64620;DHT22;51029;51.058;13.826;2022-10-24T06:40:32;13.20;99.90
64620;DHT22;51029;51.058;13.826;2022-10-24T06:42:57;13.20;99.90
64620;DHT22;51029;51.058;13.826;2022-10-24T06:45:23;13.30;99.90
64620;DHT22;51029;51.058;13.826;2022-10-24T06:47:50;13.30;99.90
64620;DHT22;51029;51.058;13.826;2022-10-24T06:50:16;13.40;99.90
64620;DHT22;51029;51.058;13.826;2022-10-24T06:52:41;13.50;99.90
64620;DHT22;51029;51.058;13.826;2022-10-24T06:55:07;13.50;99.90
64620;DHT22;51029;51.058;13.826;2022-10-24T06:57:33;13.60;99.90
64620;DHT22;51029;51.058;13.826;2022-10-24T06:59:59;13.70;99.90
64620;DHT22;51029;51.058;13.826;2022-10-24T07:02:24;13.80;99.90
64620;DHT22;51029;51.058;13.826;2022-10-24T07:04:50;13.90;99.90
64620;DHT22;51029;51.058;13.826;2022-10-24T07:07:18;14.00;99.90
64620;DHT22;51029;51.058;13.826;2022-10-24T07:09:44;14.10;99.90
64620;DHT22;51029;51.058;13.826;2022-10-24T07:12:10;14.20;99.90
64620;DHT22;51029;51.058;13.826;2022-10-24T07:14:36;14.30;99.90
64620;DHT22;51029;51.058;13.826;2022-10-24T07:17:02;14.40;99.90
64620;DHT22;51029;51.058;13.826;2022-10-24T07:19:28;14.50;99.90
64620;DHT22;51029;51.058;13.826;2022-10-24T07:21:53;14.70;99.90
64620;DHT22;51029;51.058;13.826;2022-10-24T07:24:19;14.90;99.90
64620;DHT22;51029;51.058;13.826;2022-10-24T07:26:45;15.10;99.90
64620;DHT22;51029;51.058;13.826;2022-10-24T07:29:11;15.20;99.90
64620;DHT22;51029;51.058;13.826;2022-10-24T07:31:36;15.40;99.90
64620;DHT22;51029;51.058;13.826;2022-10-24T07:34:04;15.50;99.90
64620;DHT22;51029;51.058;13.826;2022-10-24T07:36:31;15.60;99.90
64620;DHT22;51029;51.058;13.826;2022-10-24T07:38:58;15.70;99.90
64620;DHT22;51029;51.058;13.826;2022-10-24T07:41:26;15.70;99.90
64620;DHT22;51029;51.058;13.826;2022-10-24T07:43:52;15.80;99.90
64620;DHT22;51029;51.058;13.826;2022-10-24T07:46:19;15.80;99.90
64620;DHT22;51029;51.058;13.826;2022-10-24T07:48:48;15.90;99.90
64620;DHT22;51029;51.058;13.826;2022-10-24T07:51:14;16.00;99.90
64620;DHT22;51029;51.058;13.826;2022-10-24T07:53:40;16.10;99.90
64620;DHT22;51029;51.058;13.826;2022-10-24T07:56:07;16.30;99.90
64620;DHT22;51029;51.058;13.826;2022-10-24T07:58:36;16.50;99.90
64620;DHT22;51029;51.058;13.826;2022-10-24T08:01:10;16.80;99.90
64620;DHT22;51029;51.058;13.826;2022-10-24T08:03:36;17.10;99.90
64620;DHT22;51029;51.058;13.826;2022-10-24T08:06:12;17.50;99.90
64620;DHT22;51029;51.058;13.826;2022-10-24T08:08:39;17.80;99.90
64620;DHT22;51029;51.058;13.826;2022-10-24T08:11:09;18.00;99.90
64620;DHT22;51029;51.058;13.826;2022-10-24T08:13:35;18.20;99.90
64620;DHT22;51029;51.058;13.826;2022-10-24T08:16:04;18.40;99.90
64620;DHT22;51029;51.058;13.826;2022-10-24T08:18:30;18.60;99.90
64620;DHT22;51029;51.058;13.826;2022-10-24T08:20:57;18.70;99.90
64620;DHT22;51029;51.058;13.826;2022-10-24T08:23:23;18.70;99.90
64620;DHT22;51029;51.058;13.826;2022-10-24T08:25:49;18.90;99.90
64620;DHT22;51029;51.058;13.826;2022-10-24T08:28:15;18.90;99.90
64620;DHT22;51029;51.058;13.826;2022-10-24T08:30:40;18.80;99.90
64620;DHT22;51029;51.058;13.826;2022-10-24T08:33:06;18.70;99.90
64620;DHT22;51029;51.058;13.826;2022-10-24T08:35:31;18.70;99.90
64620;DHT22;51029;51.058;13.826;2022-10-24T08:37:57;18.70;99.90
64620;DHT22;51029;51.058;13.826;2022-10-24T08:40:23;18.70;99.90
64620;DHT22;51029;51.058;13.826;2022-10-24T08:42:49;18.70;99.90
64620;DHT22;51029;51.058;13.826;2022-10-24T08:45:22;18.70;99.90
64620;DHT22;51029;51.058;13.826;2022-10-24T08:48:07;18.80;99.90
64620;DHT22;51029;51.058;13.826;2022-10-24T08:50:34;18.80;99.90
64620;DHT22;51029;51.058;13.826;2022-10-24T08:53:14;18.80;99.90
64620;DHT22;51029;51.058;13.826;2022-10-24T08:55:53;18.90;99.90
64620;DHT22;51029;51.058;13.826;2022-10-24T08:58:42;19.00;99.90
64620;DHT22;51029;51.058;13.826;2022-10-24T09:01:16;19.00;99.90
64620;DHT22;51029;51.058;13.826;2022-10-24T09:03:48;19.00;99.90
64620;DHT22;51029;51.058;13.826;2022-10-24T09:06:26;19.10;99.90
64620;DHT22;51029;51.058;13.826;2022-10-24T09:08:59;19.20;99.90
64620;DHT22;51029;51.058;13.826;2022-10-24T09:11:38;19.30;99.90
64620;DHT22;51029;51.058;13.826;2022-10-24T09:14:17;19.40;99.90
64620;DHT22;51029;51.058;13.826;2022-10-24T09:16:44;19.40;99.90
64620;DHT22;51029;51.058;13.826;2022-10-24T09:19:18;19.40;99.90
64620;DHT22;51029;51.058;13.826;2022-10-24T09:21:45;19.40;99.90
64620;DHT22;51029;51.058;13.826;2022-10-24T09:24:29;19.30;99.90
64620;DHT22;51029;51.058;13.826;2022-10-24T09:26:56;19.20;99.90
64620;DHT22;51029;51.058;13.826;2022-10-24T09:29:29;19.20;99.90
64620;DHT22;51029;51.058;13.826;2022-10-24T09:31:55;19.20;99.90
64620;DHT22;51029;51.058;13.826;2022-10-24T09:34:20;19.20;99.90
64620;DHT22;51029;51.058;13.826;2022-10-24T09:36:46;19.20;99.90
64620;DHT22;51029;51.058;13.826;2022-10-24T09:39:32;19.20;99.90
64620;DHT22;51029;51.058;13.826;2022-10-24T09:41:59;19.30;99.90
64620;DHT22;51029;51.058;13.826;2022-10-24T09:44:38;19.40;99.90
64620;DHT22;51029;51.058;13.826;2022-10-24T09:47:07;19.50;99.90
64620;DHT22;51029;51.058;13.826;2022-10-24T09:49:46;19.70;99.90
64620;DHT22;51029;51.058;13.826;2022-10-24T09:52:21;19.90;99.90
64620;DHT22;51029;51.058;13.826;2022-10-24T09:55:14;20.00;99.90
64620;DHT22;51029;51.058;13.826;2022-10-24T09:57:41;20.20;99.90
64620;DHT22;51029;51.058;13.826;2022-10-24T10:00:19;20.40;99.90
64620;DHT22;51029;51.058;13.826;2022-10-24T10:02:57;21.00;99.90
64620;DHT22;51029;51.058;13.826;2022-10-24T10:05:23;21.70;99.90
64620;DHT22;51029;51.058;13.826;2022-10-24T10:07:49;22.30;99.90
64620;DHT22;51029;51.058;13.826;2022-10-24T10:10:31;23.10;99.90
64620;DHT22;51029;51.058;13.826;2022-10-24T10:21:07;23.70;99.00
64620;DHT22;51029;51.058;13.826;2022-10-24T10:23:45;23.40;98.90
64620;DHT22;51029;51.058;13.826;2022-10-24T10:26:27;23.20;99.50
64620;DHT22;51029;51.058;13.826;2022-10-24T10:29:02;22.90;99.90
64620;DHT22;51029;51.058;13.826;2022-10-24T10:31:41;22.50;99.20
64620;DHT22;51029;51.058;13.826;2022-10-24T10:34:22;22.30;99.90
64620;DHT22;51029;51.058;13.826;2022-10-24T10:39:44;21.60;99.90
64620;DHT22;51029;51.058;13.826;2022-10-24T10:42:28;21.30;99.90
64620;DHT22;51029;51.058;13.826;2022-10-24T10:45:15;21.10;99.90
64620;DHT22;51029;51.058;13.826;2022-10-24T10:50:54;20.70;99.90
64620;DHT22;51029;51.058;13.826;2022-10-24T10:53:30;20.50;99.90
64620;DHT22;51029;51.058;13.826;2022-10-24T11:01:44;20.10;99.90
64620;DHT22;51029;51.058;13.826;2022-10-24T11:09:48;19.90;99.90
64620;DHT22;51029;51.058;13.826;2022-10-24T11:14:54;19.80;99.90
64620;DHT22;51029;51.058;13.826;2022-10-24T11:17:29;19.80;99.90
64620;DHT22;51029;51.058;13.826;2022-10-24T11:23:15;19.70;99.90
64620;DHT22;51029;51.058;13.826;2022-10-24T11:25:51;19.60;99.90
64620;DHT22;51029;51.058;13.826;2022-10-24T11:28:41;19.60;99.90
64620;DHT22;51029;51.058;13.826;2022-10-24T11:31:13;19.50;99.90
64620;DHT22;51029;51.058;13.826;2022-10-24T11:33:49;19.40;99.90
64620;DHT22;51029;51.058;13.826;2022-10-24T11:39:21;19.30;99.90
64620;DHT22;51029;51.058;13.826;2022-10-24T11:42:09;19.20;99.90
64620;DHT22;51029;51.058;13.826;2022-10-24T11:45:08;19.10;99.90
64620;DHT22;51029;51.058;13.826;2022-10-24T11:47:52;19.00;99.90
64620;DHT22;51029;51.058;13.826;2022-10-24T11:55:44;18.50;99.90
64620;DHT22;51029;51.058;13.826;2022-10-24T11:58:14;18.40;99.90
64620;DHT22;51029;51.058;13.826;2022-10-24T12:09:10;18.00;99.90
64620;DHT22;51029;51.058;13.826;2022-10-24T12:17:18;18.00;99.90
64620;DHT22;51029;51.058;13.826;2022-10-24T12:19:49;18.00;99.90
64620;DHT22;51029;51.058;13.826;2022-10-24T12:22:23;18.00;99.90
64620;DHT22;51029;51.058;13.826;2022-10-24T12:28:18;18.00;99.90
64620;DHT22;51029;51.058;13.826;2022-10-24T12:31:37;18.00;99.90
64620;DHT22;51029;51.058;13.826;2022-10-24T12:37:08;17.90;99.90
64620;DHT22;51029;51.058;13.826;2022-10-24T12:39:46;17.90;99.90
64620;DHT22;51029;51.058;13.826;2022-10-24T12:47:36;17.90;99.90
64620;DHT22;51029;51.058;13.826;2022-10-24T12:58:22;18.00;99.90
64620;DHT22;51029;51.058;13.826;2022-10-24T13:01:05;18.00;99.90
64620;DHT22;51029;51.058;13.826;2022-10-24T13:06:31;18.00;99.90
64620;DHT22;51029;51.058;13.826;2022-10-24T13:19:32;18.10;99.90
64620;DHT22;51029;51.058;13.826;2022-10-24T13:21:58;18.20;99.90
64620;DHT22;51029;51.058;13.826;2022-10-24T13:24:37;18.20;99.90
64620;DHT22;51029;51.058;13.826;2022-10-24T13:37:41;18.30;99.90
64620;DHT22;51029;51.058;13.826;2022-10-24T13:40:14;18.30;99.90
64620;DHT22;51029;51.058;13.826;2022-10-24T13:42:47;18.30;99.90
64620;DHT22;51029;51.058;13.826;2022-10-24T13:45:25;18.30;99.90
64620;DHT22;51029;51.058;13.826;2022-10-24T13:47:56;18.30;99.90
64620;DHT22;51029;51.058;13.826;2022-10-24T13:50:31;18.30;99.90
64620;DHT22;51029;51.058;13.826;2022-10-24T13:53:14;18.40;99.90
64620;DHT22;51029;51.058;13.826;2022-10-24T13:55:45;18.40;99.90
64620;DHT22;51029;51.058;13.826;2022-10-24T13:58:17;18.30;99.90
64620;DHT22;51029;51.058;13.826;2022-10-24T14:00:56;18.30;99.90
64620;DHT22;51029;51.058;13.826;2022-10-24T14:03:24;18.20;99.90
64620;DHT22;51029;51.058;13.826;2022-10-24T14:05:52;18.20;99.90
64620;DHT22;51029;51.058;13.826;2022-10-24T14:08:45;18.10;99.90
64620;DHT22;51029;51.058;13.826;2022-10-24T14:11:14;18.00;99.90
64620;DHT22;51029;51.058;13.826;2022-10-24T14:13:47;17.90;99.90
64620;DHT22;51029;51.058;13.826;2022-10-24T14:16:14;17.80;99.90
64620;DHT22;51029;51.058;13.826;2022-10-24T14:18:41;17.70;99.90
64620;DHT22;51029;51.058;13.826;2022-10-24T14:21:19;17.70;99.90
64620;DHT22;51029;51.058;13.826;2022-10-24T14:23:55;17.60;99.90
64620;DHT22;51029;51.058;13.826;2022-10-24T14:26:22;17.60;99.90
64620;DHT22;51029;51.058;13.826;2022-10-24T14:33:50;17.40;99.90
64620;DHT22;51029;51.058;13.826;2022-10-24T14:36:18;17.40;99.90
64620;DHT22;51029;51.058;13.826;2022-10-24T14:38:46;17.40;99.90
64620;DHT22;51029;51.058;13.826;2022-10-24T14:41:15;17.40;99.90
64620;DHT22;51029;51.058;13.826;2022-10-24T14:43:42;17.30;99.90
64620;DHT22;51029;51.058;13.826;2022-10-24T14:48:43;17.30;99.90
64620;DHT22;51029;51.058;13.826;2022-10-24T14:53:44;17.20;99.90
64620;DHT22;51029;51.058;13.826;2022-10-24T14:58:53;17.10;99.90
64620;DHT22;51029;51.058;13.826;2022-10-24T15:01:21;17.00;99.90
64620;DHT22;51029;51.058;13.826;2022-10-24T15:04:05;16.90;99.90
64620;DHT22;51029;51.058;13.826;2022-10-24T15:06:42;16.90;99.90
64620;DHT22;51029;51.058;13.826;2022-10-24T15:11:42;17.00;99.90
64620;DHT22;51029;51.058;13.826;2022-10-24T15:17:30;17.40;99.90
64620;DHT22;51029;51.058;13.826;2022-10-24T15:19:58;17.30;99.90
64620;DHT22;51029;51.058;13.826;2022-10-24T15:24:54;17.20;99.90
64620;DHT22;51029;51.058;13.826;2022-10-24T15:27:37;17.00;99.90
64620;DHT22;51029;51.058;13.826;2022-10-24T15:30:05;16.80;99.90
64620;DHT22;51029;51.058;13.826;2022-10-24T15:32:35;16.70;99.90
64620;DHT22;51029;51.058;13.826;2022-10-24T15:35:01;16.60;99.90
64620;DHT22;51029;51.058;13.826;2022-10-24T15:37:26;16.50;99.90
64620;DHT22;51029;51.058;13.826;2022-10-24T15:39:53;16.60;99.90
64620;DHT22;51029;51.058;13.826;2022-10-24T15:42:20;16.50;99.90
64620;DHT22;51029;51.058;13.826;2022-10-24T15:44:45;16.60;99.90
64620;DHT22;51029;51.058;13.826;2022-10-24T15:47:11;16.50;99.90
64620;DHT22;51029;51.058;13.826;2022-10-24T15:49:36;16.50;99.90
64620;DHT22;51029;51.058;13.826;2022-10-24T15:52:06;16.50;99.90
64620;DHT22;51029;51.058;13.826;2022-10-24T15:54:32;16.40;99.90
64620;DHT22;51029;51.058;13.826;2022-10-24T15:56:58;16.50;99.90
64620;DHT22;51029;51.058;13.826;2022-10-24T15:59:23;16.50;99.90
64620;DHT22;51029;51.058;13.826;2022-10-24T16:01:55;16.40;99.90
64620;DHT22;51029;51.058;13.826;2022-10-24T16:04:24;16.40;99.90
64620;DHT22;51029;51.058;13.826;2022-10-24T16:06:50;16.40;99.90
64620;DHT22;51029;51.058;13.826;2022-10-24T16:09:23;16.30;99.90
64620;DHT22;51029;51.058;13.826;2022-10-24T16:11:50;16.20;99.90
64620;DHT22;51029;51.058;13.826;2022-10-24T16:14:18;16.10;99.90
64620;DHT22;51029;51.058;13.826;2022-10-24T16:16:44;16.00;99.90
64620;DHT22;51029;51.058;13.826;2022-10-24T16:19:10;16.00;99.90
64620;DHT22;51029;51.058;13.826;2022-10-24T16:21:37;16.00;99.90
64620;DHT22;51029;51.058;13.826;2022-10-24T16:24:04;15.90;99.90
64620;DHT22;51029;51.058;13.826;2022-10-24T16:26:30;15.80;99.90
64620;DHT22;51029;51.058;13.826;2022-10-24T16:28:55;15.80;99.90
64620;DHT22;51029;51.058;13.826;2022-10-24T16:31:21;15.70;99.90
64620;DHT22;51029;51.058;13.826;2022-10-24T16:33:48;15.70;99.90
64620;DHT22;51029;51.058;13.826;2022-10-24T16:36:15;15.70;99.90
64620;DHT22;51029;51.058;13.826;2022-10-24T16:38:42;15.60;99.90
64620;DHT22;51029;51.058;13.826;2022-10-24T16:41:14;15.60;99.90
64620;DHT22;51029;51.058;13.826;2022-10-24T16:43:40;15.60;99.90
64620;DHT22;51029;51.058;13.826;2022-10-24T16:46:05;15.50;99.90
64620;DHT22;51029;51.058;13.826;2022-10-24T16:48:31;15.50;99.90
64620;DHT22;51029;51.058;13.826;2022-10-24T16:50:57;15.40;99.90
64620;DHT22;51029;51.058;13.826;2022-10-24T16:53:23;15.30;99.90
64620;DHT22;51029;51.058;13.826;2022-10-24T16:55:51;15.20;99.90
64620;DHT22;51029;51.058;13.826;2022-10-24T16:58:18;15.10;99.90
64620;DHT22;51029;51.058;13.826;2022-10-24T17:00:44;15.00;99.90
64620;DHT22;51029;51.058;13.826;2022-10-24T17:03:10;14.90;99.90
64620;DHT22;51029;51.058;13.826;2022-10-24T17:05:36;14.80;99.90
64620;DHT22;51029;51.058;13.826;2022-10-24T17:08:01;14.70;99.90
64620;DHT22;51029;51.058;13.826;2022-10-24T17:10:27;14.60;99.90
64620;DHT22;51029;51.058;13.826;2022-10-24T17:12:53;14.50;99.90
64620;DHT22;51029;51.058;13.826;2022-10-24T17:15:19;14.50;99.90
64620;DHT22;51029;51.058;13.826;2022-10-24T17:17:45;14.40;99.90
64620;DHT22;51029;51.058;13.826;2022-10-24T17:20:12;14.40;99.90
64620;DHT22;51029;51.058;13.826;2022-10-24T17:22:40;14.40;99.90
64620;DHT22;51029;51.058;13.826;2022-10-24T17:25:10;14.40;99.90
64620;DHT22;51029;51.058;13.826;2022-10-24T17:27:37;14.40;99.90
64620;DHT22;51029;51.058;13.826;2022-10-24T17:30:03;14.40;99.90
64620;DHT22;51029;51.058;13.826;2022-10-24T17:32:28;14.30;99.90
64620;DHT22;51029;51.058;13.826;2022-10-24T17:34:57;14.30;99.90
64620;DHT22;51029;51.058;13.826;2022-10-24T17:40:43;14.30;99.90
64620;DHT22;51029;51.058;13.826;2022-10-24T17:43:21;14.30;99.90
64620;DHT22;51029;51.058;13.826;2022-10-24T17:45:48;14.30;99.90
64620;DHT22;51029;51.058;13.826;2022-10-24T17:48:14;14.30;99.90
64620;DHT22;51029;51.058;13.826;2022-10-24T17:50:40;14.30;99.90
64620;DHT22;51029;51.058;13.826;2022-10-24T17:53:06;14.20;99.90